Tenerife Norte / Los Rodeos GCXO

Aviation Digital Data Service (ADDS)

Output produced by METARs form (1406 UTC 12 December 2017)
METAR text: GCXO 121400Z 31016G26KT 280V010 9999 2000NW FEW000 BKN010 13/12 Q1020 RERA NOSIG
Conditions at: GCXO (TENERIFE/LOS ROD, ES) observed 1400 UTC 12 December 2017
Temperature: 13.0°C (55°F)
Dewpoint: 12.0°C (54°F) [RH = 94%]
Pressure (altimeter): 30.12 inches Hg (1020.0 mb)
Winds: from the NW (310 degrees) at 18 MPH (16 knots; 8.3 m/s)
gusting to 30 MPH (26 knots; 13.5 m/s)
Visibility: 6 or more miles (10+ km)
Ceiling: 1000 feet AGL
Clouds: few clouds at 0 feet AGL
broken clouds at 1000 feet AGL
Weather: no significant weather observed at this time

Forecast for: GCXO (TENERIFE/LOS ROD, ES)
Text: TAF GCXO 120800Z 1209/1309 34014KT 9999 BKN020 TX17/1215Z TN12/1306Z
Forecast period: 0900 UTC 12 December 2017 to 0900 UTC 13 December 2017
Forecast type: FROM: standard forecast or significant change
Winds: from the NNW (340 degrees) at 16 MPH (14 knots; 7.3 m/s)
Visibility: 6 or more miles (10+ km)
Ceiling: 2000 feet AGL
Clouds: broken clouds at 2000 feet AGL
Weather: no significant weather forecast for this period
Text: PROB40
Forecast period: 0900 to 2100 UTC 12 December 2017
Forecast type: TEMPORARY: The following changes expected for less than half the time period
Winds: from the NNW (340 degrees) at 17 MPH (15 knots; 7.8 m/s)
gusting to 29 MPH (25 knots; 13.0 m/s)
Weather: no significant weather forecast for this period
Text: TEMPO 1209/1221 34015G25KT
Forecast period: 0900 to 1100 UTC 12 December 2017
Forecast type: TEMPORARY: The following changes expected for less than half the time period
Visibility: 1.86 miles (2.99 km)
Ceiling: 500 feet AGL
Clouds: broken clouds at 500 feet AGL
Weather: DZ BCFG  (drizzle, patches of fog)

Tenerife Sur / Aeropuerto GCTS

Aviation Digital Data Service (ADDS)

Output produced by METARs form (1406 UTC 12 December 2017)
METAR text: GCTS 121400Z 07025G36KT 040V100 9999 FEW065 SCT080 21/12 Q1018 WS R07 NOSIG
Conditions at: GCTS (TENERIFE SUR/REI, ES) observed 1400 UTC 12 December 2017
Temperature: 21.0°C (70°F)
Dewpoint: 12.0°C (54°F) [RH = 56%]
Pressure (altimeter): 30.06 inches Hg (1018.0 mb)
Winds: from the ENE (70 degrees) at 29 MPH (25 knots; 13.0 m/s)
gusting to 41 MPH (36 knots; 18.7 m/s)
Visibility: 6 or more miles (10+ km)
Ceiling: at least 12,000 feet AGL
Clouds: few clouds at 6500 feet AGL
scattered clouds at 8000 feet AGL
Weather: no significant weather observed at this time

Forecast for: GCTS (TENERIFE SUR/REI, ES)
Text: TAF GCTS 120800Z 1209/1309 06018KT 9999 FEW040 TX22/1213Z TN17/1306Z
Forecast period: 0900 UTC 12 December 2017 to 0900 UTC 13 December 2017
Forecast type: FROM: standard forecast or significant change
Winds: from the ENE (60 degrees) at 21 MPH (18 knots; 9.4 m/s)
Visibility: 6 or more miles (10+ km)
Clouds: few clouds at 4000 feet AGL
Weather: no significant weather forecast for this period
Text: PROB40
Forecast period: 0900 to 2200 UTC 12 December 2017
Forecast type: TEMPORARY: The following changes expected for less than half the time period
Winds: from the ENE (60 degrees) at 29 MPH (25 knots; 13.0 m/s)
gusting to 40 MPH (35 knots; 18.2 m/s)
Weather: no significant weather forecast for this period

La Palma / Aeropuerto GCLA

Aviation Digital Data Service (ADDS)

Output produced by METARs form (1406 UTC 12 December 2017)
METAR text: GCLA 121400Z 01018KT 9999 SCT045 20/12 Q1021
Conditions at: GCLA (LA PALMA AIRPORT, ES) observed 1400 UTC 12 December 2017
Temperature: 20.0°C (68°F)
Dewpoint: 12.0°C (54°F) [RH = 60%]
Pressure (altimeter): 30.15 inches Hg (1021.0 mb)
Winds: from the N (10 degrees) at 21 MPH (18 knots; 9.4 m/s)
Visibility: 6 or more miles (10+ km)
Ceiling: at least 12,000 feet AGL
Clouds: scattered clouds at 4500 feet AGL
Weather: no significant weather observed at this time

Forecast for: GCLA (LA PALMA AIRPORT, ES)
Text: TAF GCLA 120800Z 1209/1309 01016KT 9999 FEW030 SCT050 TX21/1213Z TN16/1306Z
Forecast period: 0900 UTC 12 December 2017 to 0900 UTC 13 December 2017
Forecast type: FROM: standard forecast or significant change
Winds: from the N (10 degrees) at 18 MPH (16 knots; 8.3 m/s)
Visibility: 6 or more miles (10+ km)
Clouds: few clouds at 3000 feet AGL
scattered clouds at 5000 feet AGL
Weather: no significant weather forecast for this period
Text: TEMPO 1209/1215 01016G28KT
Forecast period: 0900 to 1500 UTC 12 December 2017
Forecast type: TEMPORARY: The following changes expected for less than half the time period
Winds: from the N (10 degrees) at 18 MPH (16 knots; 8.3 m/s)
gusting to 32 MPH (28 knots; 14.6 m/s)
Weather: no significant weather forecast for this period

Hierro / Aeropuerto GCHI

Aviation Digital Data Service (ADDS)

Output produced by METARs form (1406 UTC 12 December 2017)
METAR text: GCHI 121400Z 03017KT 330V050 9999 SCT030 21/13 Q1020
Conditions at: GCHI (HIERRO AIRPORT , ES) observed 1400 UTC 12 December 2017
Temperature: 21.0°C (70°F)
Dewpoint: 13.0°C (55°F) [RH = 60%]
Pressure (altimeter): 30.12 inches Hg (1020.0 mb)
Winds: from the NNE (30 degrees) at 20 MPH (17 knots; 8.8 m/s)
Visibility: 6 or more miles (10+ km)
Ceiling: at least 12,000 feet AGL
Clouds: scattered clouds at 3000 feet AGL
Weather: no significant weather observed at this time

Forecast for: GCHI (HIERRO AIRPORT , ES)
Text: TAF GCHI 120800Z 1209/1309 02020KT 9999 FEW030 SCT050 TX22/1214Z TN17/1306Z
Forecast period: 0900 UTC 12 December 2017 to 0900 UTC 13 December 2017
Forecast type: FROM: standard forecast or significant change
Winds: from the NNE (20 degrees) at 23 MPH (20 knots; 10.4 m/s)
Visibility: 6 or more miles (10+ km)
Clouds: few clouds at 3000 feet AGL
scattered clouds at 5000 feet AGL
Weather: no significant weather forecast for this period
Text: TEMPO 1209/1309 02018G30KT
Forecast period: 0900 UTC 12 December 2017 to 0900 UTC 13 December 2017
Forecast type: TEMPORARY: The following changes expected for less than half the time period
Winds: from the NNE (20 degrees) at 21 MPH (18 knots; 9.4 m/s)
gusting to 34 MPH (30 knots; 15.6 m/s)
Weather: no significant weather forecast for this period

Gran Canaria / Aeropuerto GCLP

Aviation Digital Data Service (ADDS)

Output produced by METARs form (1406 UTC 12 December 2017)
METAR text: GCLP 121400Z 01024KT 9999 SCT035 SCT060 20/12 Q1018 NOSIG
Conditions at: GCLP (LAS PALMAS/GANDO, ES) observed 1400 UTC 12 December 2017
Temperature: 20.0°C (68°F)
Dewpoint: 12.0°C (54°F) [RH = 60%]
Pressure (altimeter): 30.06 inches Hg (1018.0 mb)
Winds: from the N (10 degrees) at 28 MPH (24 knots; 12.5 m/s)
Visibility: 6 or more miles (10+ km)
Ceiling: at least 12,000 feet AGL
Clouds: scattered clouds at 3500 feet AGL
scattered clouds at 6000 feet AGL
Weather: no significant weather observed at this time

Forecast for: GCLP (LAS PALMAS/GANDO, ES)
Text: TAF GCLP 120800Z 1209/1309 01022KT 9999 FEW025 BKN040 TX21/1215Z TN16/1306Z
Forecast period: 0900 UTC 12 December 2017 to 0900 UTC 13 December 2017
Forecast type: FROM: standard forecast or significant change
Winds: from the N (10 degrees) at 25 MPH (22 knots; 11.4 m/s)
Visibility: 6 or more miles (10+ km)
Ceiling: 4000 feet AGL
Clouds: few clouds at 2500 feet AGL
broken clouds at 4000 feet AGL
Weather: no significant weather forecast for this period
Text: TEMPO 1209/1309 01025G35KT
Forecast period: 0900 UTC 12 December 2017 to 0900 UTC 13 December 2017
Forecast type: TEMPORARY: The following changes expected for less than half the time period
Winds: from the N (10 degrees) at 29 MPH (25 knots; 13.0 m/s)
gusting to 40 MPH (35 knots; 18.2 m/s)
Weather: no significant weather forecast for this period

Fuerteventura / Aeropuerto GCFV

Aviation Digital Data Service (ADDS)

Output produced by METARs form (1406 UTC 12 December 2017)
METAR text: GCFV 121400Z 03027KT 9999 FEW037 SCT045 20/12 Q1016
Conditions at: GCFV (FUERTEVENTURA AR, ES) observed 1400 UTC 12 December 2017
Temperature: 20.0°C (68°F)
Dewpoint: 12.0°C (54°F) [RH = 60%]
Pressure (altimeter): 30.00 inches Hg (1016.0 mb)
Winds: from the NNE (30 degrees) at 31 MPH (27 knots; 14.0 m/s)
Visibility: 6 or more miles (10+ km)
Ceiling: at least 12,000 feet AGL
Clouds: few clouds at 3700 feet AGL
scattered clouds at 4500 feet AGL
Weather: no significant weather observed at this time

Forecast for: GCFV (FUERTEVENTURA AR, ES)
Text: TAF GCFV 120800Z 1209/1309 01015KT 9999 FEW040 TX21/1215Z TN15/1306Z
Forecast period: 0900 UTC 12 December 2017 to 0900 UTC 13 December 2017
Forecast type: FROM: standard forecast or significant change
Winds: from the N (10 degrees) at 17 MPH (15 knots; 7.8 m/s)
Visibility: 6 or more miles (10+ km)
Clouds: few clouds at 4000 feet AGL
Weather: no significant weather forecast for this period

Lanzarote / Aeropuerto GCRR

Aviation Digital Data Service (ADDS)

Output produced by METARs form (1406 UTC 12 December 2017)
METAR text: GCRR 121400Z 02024G34KT 350V050 9999 FEW048 20/11 Q1017
Conditions at: GCRR (ARRECIFE/LANZARO, ES) observed 1400 UTC 12 December 2017
Temperature: 20.0°C (68°F)
Dewpoint: 11.0°C (52°F) [RH = 56%]
Pressure (altimeter): 30.03 inches Hg (1017.0 mb)
Winds: from the NNE (20 degrees) at 28 MPH (24 knots; 12.5 m/s)
gusting to 39 MPH (34 knots; 17.7 m/s)
Visibility: 6 or more miles (10+ km)
Ceiling: at least 12,000 feet AGL
Clouds: few clouds at 4800 feet AGL
Weather: no significant weather observed at this time

Forecast for: GCRR (ARRECIFE/LANZARO, ES)
Text: TAF GCRR 120800Z 1209/1309 36018KT 9999 FEW040 TX21/1215Z TN15/1306Z
Forecast period: 0900 UTC 12 December 2017 to 0900 UTC 13 December 2017
Forecast type: FROM: standard forecast or significant change
Winds: from the N (360 degrees) at 21 MPH (18 knots; 9.4 m/s)
Visibility: 6 or more miles (10+ km)
Clouds: few clouds at 4000 feet AGL
Weather: no significant weather forecast for this period
Text: TEMPO 1209/1309 36018G30KT
Forecast period: 0900 UTC 12 December 2017 to 0900 UTC 13 December 2017
Forecast type: TEMPORARY: The following changes expected for less than half the time period
Winds: from the N (360 degrees) at 21 MPH (18 knots; 9.4 m/s)
gusting to 34 MPH (30 knots; 15.6 m/s)
Weather: no significant weather forecast for this period